Time;durP1;ratioP1;P1;durP2;ratioP2;P2;SDS_P1;SDS_P2;PMS_P1;PMS_P2;Temp;Humidity;BMP_temperature;BMP_pressure;BME280_temperature;BME280_humidity;BME280_pressure;Samples;Min_cycle;Max_cycle;Signal;HPM_P1;HPM_P2
2022/11/05 00:10:06;;;;;;;9.40;4.37;;;7.90;99.90;7.20;99598;;;;572352;244;24082;-81
2022/11/05 00:18:06;;;;;;;9.83;5.77;;;7.80;99.90;7.00;99597;;;;579523;244;24104;-83
2022/11/05 00:20:35;;;;;;;10.23;6.63;;;7.70;99.90;6.90;99594;;;;579939;244;24145;-82
2022/11/05 00:26:04;;;;;;;16.47;5.77;;;7.70;99.90;6.90;99589;;;;582877;244;24200;-83
2022/11/05 00:28:32;;;;;;;9.77;6.07;;;7.70;99.90;6.90;99588;;;;579942;244;24112;-83
2022/11/05 00:30:59;;;;;;;12.53;7.10;;;7.70;99.90;6.90;99590;;;;582757;244;24163;-83
2022/11/05 00:33:32;;;;;;;12.43;6.50;;;7.60;99.90;6.80;99589;;;;579164;244;24052;-83
2022/11/05 00:35:57;;;;;;;10.00;6.50;;;7.60;99.90;6.80;99584;;;;579454;244;24177;-82
2022/11/05 00:38:29;;;;;;;9.70;6.77;;;7.60;99.90;6.80;99583;;;;579172;244;24151;-83
2022/11/05 00:40:53;;;;;;;9.50;6.60;;;7.60;99.90;6.80;99584;;;;577158;244;24069;-82
2022/11/05 00:46:07;;;;;;;14.37;7.10;;;7.50;99.90;6.70;99583;;;;579134;244;24076;-83
2022/11/05 00:51:22;;;;;;;11.37;7.20;;;7.60;99.90;6.70;99579;;;;579183;244;24071;-82
2022/11/05 00:53:50;;;;;;;13.30;7.07;;;7.50;99.90;6.80;99583;;;;588498;244;24076;-83
2022/11/05 00:56:18;;;;;;;15.23;7.40;;;7.50;99.90;6.80;99580;;;;579481;244;24086;-83
2022/11/05 00:58:49;;;;;;;10.33;6.67;;;7.50;99.90;6.80;99580;;;;579154;244;24075;-83
2022/11/05 01:01:14;;;;;;;11.00;6.87;;;7.50;99.90;6.80;99580;;;;579247;244;24076;-83
2022/11/05 01:03:42;;;;;;;10.40;6.17;;;7.50;99.90;6.80;99580;;;;579177;244;24075;-83
2022/11/05 01:06:13;;;;;;;10.53;7.00;;;7.50;99.90;6.70;99574;;;;589075;242;24089;-83
2022/11/05 01:08:41;;;;;;;9.83;6.80;;;7.60;99.90;6.70;99574;;;;576081;243;24078;-83
2022/11/05 01:11:14;;;;;;;11.87;7.47;;;7.50;99.90;6.70;99571;;;;566934;248;24133;-84
2022/11/05 01:13:43;;;;;;;14.50;7.40;;;7.50;99.90;6.70;99573;;;;580060;244;24113;-82
2022/11/05 01:16:10;;;;;;;13.50;8.83;;;7.50;99.90;6.70;99561;;;;588065;243;24124;-83
2022/11/05 01:18:40;;;;;;;15.50;8.53;;;7.50;99.90;6.70;99567;;;;579190;244;24069;-84
2022/11/05 01:21:12;;;;;;;9.53;7.23;;;7.50;99.90;6.70;99567;;;;578945;244;24101;-82
2022/11/05 01:23:42;;;;;;;16.60;8.50;;;7.50;99.90;6.70;99569;;;;583451;244;24121;-83
2022/11/05 01:26:10;;;;;;;10.23;6.63;;;7.50;99.90;6.70;99565;;;;579221;244;25124;-83
2022/11/05 01:28:39;;;;;;;10.93;8.37;;;7.50;99.90;6.70;99565;;;;588320;244;24065;-83
2022/11/05 01:31:07;;;;;;;13.97;8.83;;;7.50;99.90;6.70;99563;;;;579274;244;24073;-83
2022/11/05 01:33:35;;;;;;;12.10;7.73;;;7.50;99.90;6.70;99557;;;;588167;243;24059;-82
2022/11/05 01:36:03;;;;;;;12.70;6.60;;;7.50;99.90;6.70;99560;;;;579244;244;24165;-83
2022/11/05 01:38:34;;;;;;;12.87;8.13;;;7.50;99.90;6.70;99551;;;;583283;244;24158;-82
2022/11/05 01:40:58;;;;;;;13.87;8.13;;;7.50;99.90;6.70;99553;;;;578862;244;24067;-82
2022/11/05 01:43:26;;;;;;;10.20;7.77;;;7.50;99.90;6.70;99552;;;;578997;244;24107;-83
2022/11/05 01:45:54;;;;;;;14.83;8.53;;;7.50;99.90;6.70;99546;;;;579287;244;24154;-82
2022/11/05 01:48:25;;;;;;;12.33;7.70;;;7.50;99.90;6.70;99553;;;;578741;244;24154;-82
2022/11/05 01:50:59;;;;;;;13.33;8.33;;;7.50;99.90;6.70;99560;;;;578252;244;24137;-83
2022/11/05 01:53:38;;;;;;;12.47;7.33;;;7.50;99.90;6.70;99564;;;;578846;244;24071;-82
2022/11/05 01:56:30;;;;;;;21.50;8.43;;;7.50;99.90;6.70;99573;;;;587791;244;24083;-83
2022/11/05 01:59:13;;;;;;;13.63;8.17;;;7.50;99.90;6.70;99569;;;;578305;244;24064;-82
2022/11/05 02:01:41;;;;;;;12.20;7.97;;;7.50;99.90;6.70;99574;;;;578522;244;24111;-82
2022/11/05 02:04:09;;;;;;;15.77;7.73;;;7.50;99.90;6.70;99565;;;;579476;244;24108;-83
2022/11/05 02:06:37;;;;;;;9.00;6.67;;;7.50;99.90;6.70;99557;;;;579753;244;24074;-83
2022/11/05 02:09:20;;;;;;;16.60;7.47;;;7.50;99.90;6.70;99555;;;;582354;244;24121;-84
2022/11/05 02:11:48;;;;;;;9.30;5.87;;;7.50;99.90;6.70;99560;;;;579206;244;25115;-83
2022/11/05 02:14:18;;;;;;;10.70;7.60;;;7.50;99.90;6.70;99556;;;;579073;244;24107;-84
2022/11/05 02:16:57;;;;;;;9.73;6.53;;;7.50;99.90;6.70;99557;;;;579673;242;24088;-84
2022/11/05 02:19:59;;;;;;;9.67;6.83;;;7.50;99.90;6.70;99553;;;;589591;244;24131;-84
2022/11/05 02:22:36;;;;;;;12.70;5.90;;;7.50;99.90;6.70;99547;;;;580114;244;24090;-83
2022/11/05 02:25:50;;;;;;;8.80;7.37;;;7.50;99.90;6.70;99538;;;;579983;244;24095;-82
2022/11/05 02:28:18;;;;;;;10.57;7.70;;;7.50;99.90;6.70;99537;;;;579593;244;24053;-82
2022/11/05 02:31:16;;;;;;;22.77;14.82;;;7.50;99.90;6.80;99532;;;;574640;244;35136;-82
2022/11/05 02:34:03;;;;;;;14.43;10.23;;;7.60;99.90;6.80;99529;;;;579738;244;24093;-82
2022/11/05 02:36:49;;;;;;;7.33;6.50;;;7.60;99.90;6.80;99537;;;;579380;244;24074;-81
2022/11/05 02:39:35;;;;;;;9.97;7.67;;;7.60;99.90;6.80;99534;;;;588358;244;25124;-81
2022/11/05 02:42:21;;;;;;;10.10;7.67;;;7.60;99.90;6.80;99531;;;;581638;244;24107;-81
2022/11/05 02:45:02;;;;;;;9.83;7.63;;;7.60;99.90;6.80;99528;;;;579114;244;24059;-81
2022/11/05 02:47:41;;;;;;;11.93;8.30;;;7.60;99.90;6.80;99531;;;;579953;244;24079;-82
2022/11/05 02:50:33;;;;;;;14.20;8.97;;;7.60;99.90;6.80;99532;;;;579785;244;24074;-80
2022/11/05 02:53:04;;;;;;;14.27;8.83;;;7.60;99.90;6.80;99522;;;;579713;244;24059;-81
2022/11/05 02:55:46;;;;;;;12.43;8.27;;;7.60;99.90;6.80;99528;;;;579000;244;24145;-81
2022/11/05 02:58:18;;;;;;;10.70;7.67;;;7.60;99.90;6.80;99528;;;;588649;244;24120;-80
2022/11/05 03:00:51;;;;;;;12.10;7.77;;;7.60;99.90;6.80;99529;;;;579536;244;25122;-80
2022/11/05 03:03:37;;;;;;;12.17;8.87;;;7.60;99.90;6.80;99531;;;;579590;244;24079;-81
2022/11/05 03:06:41;;;;;;;11.90;7.83;;;7.60;99.90;6.80;99540;;;;579565;244;24153;-82
2022/11/05 03:09:20;;;;;;;8.73;5.97;;;7.60;99.90;6.80;99557;;;;579983;244;24088;-81
2022/11/05 03:12:09;;;;;;;12.93;8.67;;;7.60;99.90;6.80;99553;;;;579878;244;24138;-81
2022/11/05 03:15:10;;;;;;;11.37;8.33;;;7.60;99.90;6.70;99552;;;;579282;244;24211;-85
2022/11/05 03:17:53;;;;;;;12.40;8.97;;;7.50;99.90;6.70;99553;;;;579684;244;24159;-83
2022/11/05 03:20:29;;;;;;;16.17;9.10;;;7.50;99.90;6.70;99548;;;;581596;244;24065;-82
2022/11/05 03:23:27;;;;;;;16.27;10.73;;;7.50;99.90;6.80;99553;;;;579434;244;24067;-82
2022/11/05 03:26:07;;;;;;;17.30;8.67;;;7.50;99.90;6.70;99548;;;;579659;244;24095;-83
2022/11/05 03:28:35;;;;;;;14.23;8.47;;;7.50;99.90;6.70;99557;;;;579173;243;24093;-83
2022/11/05 03:31:06;;;;;;;12.77;9.33;;;7.50;99.90;6.70;99562;;;;580578;244;24058;-82
2022/11/05 03:33:32;;;;;;;14.77;9.67;;;7.50;99.90;6.70;99565;;;;580072;244;24079;-81
2022/11/05 03:35:59;;;;;;;16.60;8.90;;;7.50;99.90;6.70;99560;;;;580265;244;24132;-81
2022/11/05 03:38:37;;;;;;;19.80;9.90;;;7.50;99.90;6.80;99566;;;;580032;244;24064;-81
2022/11/05 03:41:05;;;;;;;13.90;9.17;;;7.50;99.90;6.70;99573;;;;580411;244;24100;-82
2022/11/05 03:43:34;;;;;;;10.47;7.07;;;7.50;99.90;6.70;99570;;;;579817;244;24085;-81
2022/11/05 03:46:02;;;;;;;12.73;9.33;;;7.50;99.90;6.70;99564;;;;579971;244;24056;-81
2022/11/05 03:48:31;;;;;;;12.87;9.23;;;7.50;99.90;6.70;99566;;;;579310;244;24086;-82
2022/11/05 03:51:28;;;;;;;11.87;8.60;;;7.50;99.90;6.70;99561;;;;579664;244;24082;-82
2022/11/05 03:53:58;;;;;;;12.63;9.53;;;7.50;99.90;6.70;99557;;;;588836;244;24066;-82
2022/11/05 03:56:35;;;;;;;12.80;8.97;;;7.50;99.90;6.70;99551;;;;582587;244;24097;-82
2022/11/05 03:59:03;;;;;;;16.67;9.83;;;7.40;99.90;6.70;99549;;;;579622;244;24090;-82
2022/11/05 04:01:35;;;;;;;14.87;8.83;;;7.50;99.90;6.70;99545;;;;566692;249;24090;-81
2022/11/05 04:03:58;;;;;;;12.90;9.13;;;7.50;99.90;6.70;99553;;;;579196;244;24112;-82
2022/11/05 04:14:46;;;;;;;22.10;13.03;;;7.50;99.90;6.70;99554;;;;579191;244;24071;-81
2022/11/05 04:17:14;;;;;;;25.07;11.60;;;7.50;99.90;6.70;99560;;;;588156;244;24075;-81
2022/11/05 04:25:17;;;;;;;22.80;14.27;;;7.50;99.90;6.80;99557;;;;579193;244;24072;-80
2022/11/05 04:27:50;;;;;;;17.10;11.93;;;7.60;99.90;6.80;99571;;;;579084;244;24108;-81
2022/11/05 04:30:18;;;;;;;16.47;11.03;;;7.50;99.90;6.70;99573;;;;578806;244;24144;-81
2022/11/05 04:33:04;;;;;;;17.00;10.07;;;7.60;99.90;6.80;99565;;;;579221;244;24188;-81
2022/11/05 04:35:38;;;;;;;25.40;11.80;;;7.60;99.90;6.80;99561;;;;579037;244;24092;-80
2022/11/05 04:38:06;;;;;;;21.13;11.37;;;7.60;99.90;6.70;99556;;;;579184;244;24106;-81
2022/11/05 04:40:33;;;;;;;19.77;12.17;;;7.50;99.90;6.70;99571;;;;582575;243;24051;-81
2022/11/05 04:43:02;;;;;;;18.00;11.47;;;7.50;99.90;6.70;99568;;;;580301;244;24098;-81
2022/11/05 04:45:33;;;;;;;19.23;10.97;;;7.50;99.90;6.70;99557;;;;579842;244;24096;-80
2022/11/05 04:47:59;;;;;;;19.37;10.23;;;7.50;99.90;6.70;99566;;;;579519;244;24057;-80
2022/11/05 04:50:28;;;;;;;17.13;10.67;;;7.50;99.90;6.70;99563;;;;579613;244;24068;-80
2022/11/05 04:52:59;;;;;;;16.60;10.47;;;7.50;99.90;6.70;99565;;;;579544;244;24118;-80
2022/11/05 04:55:27;;;;;;;18.37;11.53;;;7.50;99.90;6.70;99564;;;;579075;244;24094;-80
2022/11/05 04:57:52;;;;;;;17.97;10.13;;;7.50;99.90;6.70;99567;;;;579065;244;24111;-80
2022/11/05 05:00:21;;;;;;;13.97;9.40;;;7.50;99.90;6.70;99576;;;;579539;244;24091;-81
2022/11/05 05:02:50;;;;;;;18.30;10.97;;;7.50;99.90;6.70;99577;;;;588422;244;24078;-82
2022/11/05 05:05:20;;;;;;;18.17;10.00;;;7.50;99.90;6.70;99573;;;;588706;242;24047;-82
2022/11/05 05:07:45;;;;;;;12.53;9.10;;;7.50;99.90;6.70;99579;;;;579455;244;25250;-82
2022/11/05 05:10:13;;;;;;;22.93;11.10;;;7.50;99.90;6.70;99584;;;;588288;244;25137;-81
2022/11/05 05:12:42;;;;;;;17.90;10.50;;;7.50;99.90;6.70;99590;;;;579729;244;24126;-81
2022/11/05 05:15:10;;;;;;;16.83;11.40;;;7.50;99.90;6.70;99594;;;;588153;243;24075;-81
2022/11/05 05:17:38;;;;;;;18.37;10.43;;;7.50;99.90;6.70;99590;;;;579104;244;24043;-81
2022/11/05 05:22:54;;;;;;;16.80;9.37;;;7.50;99.90;6.70;99590;;;;581690;244;24104;-82
2022/11/05 05:25:22;;;;;;;18.53;11.03;;;7.50;99.90;6.70;99580;;;;587724;243;24108;-81
2022/11/05 05:27:50;;;;;;;14.07;9.90;;;7.40;99.90;6.70;99581;;;;587934;244;24066;-82
2022/11/05 05:30:19;;;;;;;15.53;10.40;;;7.50;99.90;6.70;99586;;;;587642;244;24077;-81
2022/11/05 05:32:47;;;;;;;16.00;9.90;;;7.40;99.90;6.70;99597;;;;587679;244;24104;-81
2022/11/05 05:35:15;;;;;;;15.17;9.97;;;7.40;99.90;6.70;99594;;;;578552;244;24083;-81
2022/11/05 05:37:43;;;;;;;15.13;9.63;;;7.50;99.90;6.70;99603;;;;587916;242;24064;-81
2022/11/05 05:40:11;;;;;;;16.83;10.20;;;7.50;99.90;6.70;99601;;;;587638;244;24074;-81
2022/11/05 05:42:39;;;;;;;18.73;11.33;;;7.50;99.90;6.70;99607;;;;587562;244;24083;-84
2022/11/05 05:45:06;;;;;;;20.60;10.97;;;7.50;99.90;6.70;99611;;;;587727;244;24066;-84
2022/11/05 05:47:34;;;;;;;20.67;10.93;;;7.50;99.90;6.70;99616;;;;587503;242;24117;-81
2022/11/05 05:50:02;;;;;;;18.47;10.13;;;7.50;99.90;6.70;99609;;;;587609;244;24080;-83
2022/11/05 05:52:33;;;;;;;18.00;11.67;;;7.50;99.90;6.70;99604;;;;579665;243;24084;-84
2022/11/05 05:54:58;;;;;;;16.70;10.37;;;7.50;99.90;6.80;99602;;;;579393;244;24100;-84
2022/11/05 05:57:26;;;;;;;22.57;11.13;;;7.50;99.90;6.80;99605;;;;588630;243;24149;-84
2022/11/05 05:59:54;;;;;;;16.77;11.60;;;7.50;99.90;6.80;99616;;;;588571;243;24054;-81
2022/11/05 06:02:25;;;;;;;20.73;11.37;;;7.60;99.90;6.80;99615;;;;588310;243;24067;-80
2022/11/05 06:04:50;;;;;;;22.20;11.43;;;7.60;99.90;6.80;99621;;;;578923;244;24105;-80
2022/11/05 06:07:18;;;;;;;16.50;11.30;;;7.60;99.90;6.80;99625;;;;588306;243;24092;-81
2022/11/05 06:09:46;;;;;;;20.83;10.70;;;7.60;99.90;6.80;99620;;;;588373;243;24069;-82
2022/11/05 06:12:14;;;;;;;15.17;10.90;;;7.50;99.90;6.80;99629;;;;588143;243;24038;-82
2022/11/05 06:14:42;;;;;;;15.77;11.03;;;7.60;99.90;6.80;99627;;;;578775;244;24106;-82
2022/11/05 06:17:11;;;;;;;14.53;10.00;;;7.60;99.90;6.80;99632;;;;587869;243;24071;-82
2022/11/05 06:19:39;;;;;;;16.67;9.67;;;7.60;99.90;6.80;99635;;;;587921;244;24059;-81
2022/11/05 06:22:07;;;;;;;14.47;8.27;;;7.60;99.90;6.80;99637;;;;587938;243;24106;-82
2022/11/05 06:24:34;;;;;;;14.83;9.47;;;7.60;99.90;6.80;99636;;;;588111;243;24117;-82
2022/11/05 06:27:02;;;;;;;13.43;8.90;;;7.60;99.90;6.80;99641;;;;588554;244;24072;-81
2022/11/05 06:29:30;;;;;;;12.27;7.37;;;7.60;99.90;6.80;99652;;;;588390;244;24094;-82
2022/11/05 06:31:58;;;;;;;12.47;8.33;;;7.60;99.90;6.80;99650;;;;588263;244;24135;-82
2022/11/05 06:34:27;;;;;;;12.97;7.90;;;7.60;99.90;6.80;99654;;;;588244;244;24051;-82
2022/11/05 06:36:56;;;;;;;14.87;9.07;;;7.60;99.90;6.80;99662;;;;588273;244;24041;-82
2022/11/05 06:39:24;;;;;;;10.47;7.80;;;7.60;99.90;6.80;99661;;;;588211;244;24045;-81
2022/11/05 06:41:52;;;;;;;11.23;8.53;;;7.60;99.90;6.80;99657;;;;588088;244;24060;-81
2022/11/05 06:44:21;;;;;;;14.93;8.87;;;7.60;99.90;6.80;99656;;;;588236;244;24060;-81
2022/11/05 06:46:48;;;;;;;15.43;8.50;;;7.60;99.90;6.80;99659;;;;579210;244;24201;-81
2022/11/05 06:49:16;;;;;;;13.03;8.93;;;7.60;99.90;6.80;99657;;;;588166;244;24079;-81
2022/11/05 06:51:44;;;;;;;16.50;10.83;;;7.60;99.90;6.90;99655;;;;588079;244;24062;-82
2022/11/05 06:54:13;;;;;;;15.53;9.17;;;7.60;99.90;6.90;99662;;;;588056;244;24052;-81
2022/11/05 06:56:43;;;;;;;18.00;9.57;;;7.60;99.90;6.90;99654;;;;588064;244;24063;-81
2022/11/05 06:59:11;;;;;;;17.23;9.17;;;7.70;99.90;6.90;99655;;;;579052;244;24177;-81
2022/11/05 07:01:39;;;;;;;14.73;9.53;;;7.70;99.90;6.90;99654;;;;588003;244;24087;-81
2022/11/05 07:04:07;;;;;;;14.70;9.70;;;7.70;99.90;7.00;99664;;;;588958;242;24110;-80
2022/11/05 07:06:35;;;;;;;20.07;9.67;;;7.70;99.90;7.00;99664;;;;589316;244;24048;-80
2022/11/05 07:09:03;;;;;;;15.57;9.70;;;7.70;99.90;7.00;99667;;;;590068;243;24078;-80
2022/11/05 07:11:31;;;;;;;21.60;9.90;;;7.70;99.90;7.00;99667;;;;588746;243;24094;-82
2022/11/05 07:14:00;;;;;;;17.57;9.87;;;7.70;99.90;7.00;99670;;;;588536;243;25208;-82
2022/11/05 07:16:30;;;;;;;18.60;9.17;;;7.70;99.90;7.00;99671;;;;579771;244;24070;-82
2022/11/05 07:18:56;;;;;;;15.77;9.13;;;7.70;99.90;7.00;99678;;;;578345;244;24098;-80
2022/11/05 07:21:24;;;;;;;16.10;9.27;;;7.80;99.90;7.00;99679;;;;580176;244;24066;-81
2022/11/05 07:23:52;;;;;;;12.83;8.80;;;7.80;99.90;7.10;99688;;;;588616;243;24084;-80
2022/11/05 07:26:20;;;;;;;12.60;8.53;;;7.80;99.90;7.20;99693;;;;588564;243;24070;-80
2022/11/05 07:28:48;;;;;;;17.60;10.03;;;7.90;99.90;7.30;99696;;;;588496;244;24072;-80
2022/11/05 07:31:16;;;;;;;14.37;9.83;;;8.00;99.90;7.30;99700;;;;588329;243;24064;-80
2022/11/05 07:33:44;;;;;;;16.63;9.90;;;8.00;99.90;7.30;99708;;;;588354;243;24064;-80
2022/11/05 07:36:13;;;;;;;15.50;9.93;;;8.00;99.90;7.30;99718;;;;588432;243;24060;-81
2022/11/05 07:38:40;;;;;;;19.10;10.17;;;8.10;99.90;7.40;99718;;;;588735;244;24120;-80
2022/11/05 07:41:08;;;;;;;21.10;11.10;;;8.10;99.90;7.40;99714;;;;588471;244;24076;-81
2022/11/05 07:43:35;;;;;;;16.60;10.13;;;8.10;99.90;7.40;99724;;;;588580;244;24150;-81
2022/11/05 07:46:03;;;;;;;17.30;10.70;;;8.20;99.90;7.50;99725;;;;579350;244;24121;-80
2022/11/05 07:48:31;;;;;;;17.33;10.20;;;8.30;99.90;7.60;99732;;;;588390;244;24039;-82
2022/11/05 07:50:59;;;;;;;18.10;10.43;;;8.30;99.90;7.60;99716;;;;588457;244;24088;-80
2022/11/05 07:53:27;;;;;;;16.20;10.43;;;8.30;99.90;7.60;99710;;;;588218;244;24154;-81
2022/11/05 07:55:57;;;;;;;17.63;10.80;;;8.40;99.90;7.60;99706;;;;588617;244;24091;-80
2022/11/05 07:58:27;;;;;;;19.50;11.43;;;8.30;99.90;7.60;99709;;;;588348;244;24126;-80
2022/11/05 08:00:51;;;;;;;19.03;11.10;;;8.30;99.90;7.60;99700;;;;578928;244;24102;-79
2022/11/05 08:03:19;;;;;;;16.83;10.93;;;8.30;99.90;7.60;99709;;;;588105;244;24086;-80
2022/11/05 08:05:48;;;;;;;20.63;12.20;;;8.30;99.90;7.60;99703;;;;579254;244;24074;-81
2022/11/05 08:08:15;;;;;;;17.13;11.57;;;8.30;99.90;7.60;99721;;;;579486;244;24065;-82
2022/11/05 08:10:47;;;;;;;26.07;11.73;;;8.30;99.90;7.60;99729;;;;579671;244;24079;-82
2022/11/05 08:13:12;;;;;;;18.77;11.37;;;8.40;99.90;7.60;99741;;;;579004;244;24117;-82
2022/11/05 08:15:43;;;;;;;17.53;10.87;;;8.30;99.90;7.70;99737;;;;580327;243;24141;-79
2022/11/05 08:18:08;;;;;;;19.40;11.30;;;8.40;99.90;7.80;99735;;;;581103;244;24074;-82
2022/11/05 08:20:38;;;;;;;20.67;11.30;;;8.50;99.90;7.80;99743;;;;580357;244;24073;-82
2022/11/05 08:23:04;;;;;;;18.43;12.17;;;8.60;99.90;7.80;99744;;;;576386;244;24135;-80
2022/11/05 08:25:36;;;;;;;18.13;11.17;;;8.60;99.90;7.90;99745;;;;580458;244;24060;-82
2022/11/05 08:28:00;;;;;;;20.73;12.60;;;8.60;99.90;7.90;99756;;;;580174;244;24101;-81
2022/11/05 08:30:28;;;;;;;17.93;13.07;;;8.60;99.90;7.90;99745;;;;580067;244;24058;-80
2022/11/05 08:32:57;;;;;;;19.63;12.37;;;8.70;99.90;8.00;99737;;;;589123;243;24184;-79
2022/11/05 08:35:28;;;;;;;20.93;13.30;;;8.70;99.90;8.10;99736;;;;582713;244;25108;-81
2022/11/05 08:37:59;;;;;;;20.70;12.57;;;8.80;99.90;8.10;99749;;;;579398;244;24076;-80
2022/11/05 08:40:23;;;;;;;18.30;12.20;;;8.80;99.90;8.10;99760;;;;579114;244;24070;-81
2022/11/05 08:42:52;;;;;;;20.60;12.00;;;8.90;99.90;8.20;99761;;;;588990;243;24081;-80
2022/11/05 08:45:20;;;;;;;21.00;12.60;;;8.90;99.90;8.20;99766;;;;580011;244;24045;-80
2022/11/05 08:47:48;;;;;;;24.47;12.83;;;8.90;99.90;8.30;99756;;;;588831;244;24067;-80
2022/11/05 08:50:15;;;;;;;22.13;11.77;;;8.90;99.90;8.30;99761;;;;588723;244;24076;-81
2022/11/05 08:52:44;;;;;;;18.37;11.13;;;9.00;99.90;8.30;99762;;;;579708;244;24080;-81
2022/11/05 08:55:12;;;;;;;20.73;12.73;;;9.00;99.90;8.40;99765;;;;588854;244;24099;-81
2022/11/05 08:57:40;;;;;;;27.07;13.17;;;9.10;99.90;8.40;99762;;;;588804;244;24067;-80
2022/11/05 09:00:12;;;;;;;23.27;12.60;;;9.10;99.90;8.50;99773;;;;588652;244;24083;-81
2022/11/05 09:02:36;;;;;;;21.63;12.80;;;9.20;99.90;8.50;99771;;;;577614;244;24072;-80
2022/11/05 09:05:04;;;;;;;21.00;12.27;;;9.20;99.90;8.60;99768;;;;588325;244;24069;-80
2022/11/05 09:07:32;;;;;;;18.30;12.43;;;9.30;99.90;8.60;99772;;;;577669;244;24120;-81
2022/11/05 09:10:00;;;;;;;23.83;13.47;;;9.40;99.90;8.70;99773;;;;588351;244;24156;-79
2022/11/05 09:12:28;;;;;;;24.60;12.83;;;9.40;99.90;8.80;99782;;;;587740;244;24151;-80
2022/11/05 09:14:56;;;;;;;27.13;13.20;;;9.60;99.90;8.90;99787;;;;587982;244;24085;-81
2022/11/05 09:17:24;;;;;;;20.53;13.33;;;9.60;99.90;9.00;99778;;;;587976;244;24079;-79
2022/11/05 09:19:52;;;;;;;22.50;12.97;;;9.70;99.90;9.10;99781;;;;578643;244;24089;-80
2022/11/05 09:22:20;;;;;;;17.60;11.80;;;9.80;99.90;9.10;99785;;;;587659;244;24114;-80
2022/11/05 09:24:48;;;;;;;15.27;10.70;;;9.80;99.90;9.10;99789;;;;587527;244;24131;-79
2022/11/05 09:27:16;;;;;;;22.33;11.80;;;9.80;99.90;9.10;99793;;;;588433;242;24093;-80
2022/11/05 09:29:45;;;;;;;22.57;11.67;;;9.90;99.90;9.20;99798;;;;588737;243;24066;-80
2022/11/05 09:32:17;;;;;;;16.83;10.80;;;9.90;99.90;9.20;99818;;;;588343;243;24067;-80
2022/11/05 09:34:43;;;;;;;17.30;10.50;;;9.90;99.90;9.10;99810;;;;579347;244;24115;-80
2022/11/05 09:37:12;;;;;;;33.20;18.53;;;9.90;99.90;9.20;99819;;;;582899;244;35133;-80
2022/11/05 09:39:38;;;;;;;23.07;12.43;;;9.90;99.90;9.20;99822;;;;578764;244;24086;-82
2022/11/05 09:42:09;;;;;;;18.03;11.23;;;9.90;99.90;9.20;99828;;;;588143;243;24072;-82
2022/11/05 09:44:46;;;;;;;17.20;9.57;;;9.90;99.90;9.20;99836;;;;578917;244;24078;-81
2022/11/05 09:47:23;;;;;;;17.80;9.80;;;9.90;99.90;9.10;99838;;;;578805;244;24092;-82
2022/11/05 09:49:51;;;;;;;15.63;8.53;;;9.90;99.90;9.20;99844;;;;578939;244;24162;-81
2022/11/05 09:52:25;;;;;;;14.90;9.13;;;9.90;99.90;9.20;99847;;;;578894;244;24213;-79
2022/11/05 09:54:55;;;;;;;13.77;8.90;;;9.90;99.90;9.20;99844;;;;578898;244;24097;-79
2022/11/05 09:57:41;;;;;;;14.10;10.10;;;9.90;99.90;9.30;99850;;;;578811;244;24246;-83
2022/11/05 10:00:09;;;;;;;14.77;8.60;;;10.00;99.90;9.30;99842;;;;579166;244;24098;-79
2022/11/05 10:02:46;;;;;;;14.30;8.30;;;10.00;99.90;9.30;99851;;;;578477;244;24064;-81
2022/11/05 10:05:18;;;;;;;14.57;8.10;;;10.00;99.90;9.30;99858;;;;578929;244;24131;-79
2022/11/05 10:07:45;;;;;;;11.57;6.53;;;10.00;99.90;9.20;99858;;;;578142;244;24092;-79
2022/11/05 10:10:22;;;;;;;9.07;6.43;;;10.00;99.90;9.30;99852;;;;578210;244;24111;-82
2022/11/05 10:12:53;;;;;;;10.03;5.70;;;10.00;99.90;9.30;99858;;;;547295;249;24104;-79
2022/11/05 10:15:32;;;;;;;10.50;5.20;;;10.00;99.90;9.30;99862;;;;578708;244;24148;-78
2022/11/05 10:18:03;;;;;;;7.13;4.83;;;10.00;99.90;9.40;99863;;;;578832;244;24148;-80
2022/11/05 10:20:35;;;;;;;6.20;4.37;;;10.10;99.90;9.40;99863;;;;578180;244;24205;-81
2022/11/05 10:23:12;;;;;;;7.87;4.87;;;10.20;99.90;9.40;99878;;;;587200;244;24127;-80
2022/11/05 10:26:01;;;;;;;8.70;4.77;;;10.10;99.90;9.40;99876;;;;578682;244;24108;-81
2022/11/05 10:28:29;;;;;;;11.75;6.72;;;10.10;99.90;9.40;99878;;;;562383;249;35348;-80
2022/11/05 10:30:57;;;;;;;11.17;5.90;;;10.10;99.90;9.40;99878;;;;587463;243;24069;-81
2022/11/05 10:33:28;;;;;;;11.30;5.93;;;10.10;99.90;9.40;99877;;;;577721;244;24078;-80
2022/11/05 10:35:56;;;;;;;7.37;5.67;;;10.10;99.90;9.40;99888;;;;578392;244;24125;-80
2022/11/05 10:38:27;;;;;;;8.57;5.57;;;10.20;99.90;9.40;99884;;;;578918;243;24161;-81
2022/11/05 10:41:16;;;;;;;6.47;5.13;;;10.10;99.90;9.40;99874;;;;579303;244;24098;-80
2022/11/05 10:43:50;;;;;;;11.60;5.47;;;10.20;99.90;9.40;99880;;;;579302;244;24121;-80
2022/11/05 10:46:36;;;;;;;10.27;4.40;;;10.20;99.90;9.40;99884;;;;578948;244;24151;-80
2022/11/05 10:49:43;;;;;;;4.33;3.17;;;10.20;99.90;9.50;99895;;;;579011;244;24102;-79
2022/11/05 10:52:31;;;;;;;9.63;3.40;;;10.20;99.90;9.50;99911;;;;579398;244;24083;-81
2022/11/05 10:55:00;;;;;;;5.30;4.07;;;10.30;99.90;9.60;99916;;;;578951;244;24094;-81
2022/11/05 10:57:36;;;;;;;4.90;3.20;;;10.30;99.90;9.60;99918;;;;578930;244;24135;-79
2022/11/05 11:00:23;;;;;;;5.00;3.30;;;10.40;99.90;9.60;99920;;;;578684;244;24093;-80
2022/11/05 11:02:47;;;;;;;3.43;2.77;;;10.40;99.90;9.70;99921;;;;565926;246;24139;-81
2022/11/05 11:05:34;;;;;;;9.70;2.90;;;10.50;99.90;9.80;99925;;;;578427;244;24085;-79
2022/11/05 11:08:13;;;;;;;4.87;3.17;;;10.60;99.90;9.80;99930;;;;565696;249;24146;-79
2022/11/05 11:10:53;;;;;;;8.13;3.53;;;10.60;99.90;9.80;99929;;;;582994;244;24068;-82
2022/11/05 11:13:29;;;;;;;6.83;3.47;;;10.60;99.90;9.80;99936;;;;578737;244;24261;-83
2022/11/05 11:16:12;;;;;;;5.87;3.47;;;10.60;99.90;9.90;99954;;;;579805;244;24061;-83
2022/11/05 11:18:40;;;;;;;7.13;3.03;;;10.70;99.90;10.00;99945;;;;565520;249;24094;-82
2022/11/05 11:21:27;;;;;;;4.80;2.60;;;10.70;99.90;10.00;99940;;;;578403;244;24115;-83
2022/11/05 11:24:05;;;;;;;7.03;2.73;;;10.80;99.90;10.00;99949;;;;565973;249;24157;-81
2022/11/05 11:26:37;;;;;;;4.93;3.00;;;10.80;99.90;10.00;99946;;;;587745;244;24075;-83
2022/11/05 11:29:07;;;;;;;6.17;2.90;;;10.80;99.90;10.00;99956;;;;579145;244;24116;-81
2022/11/05 11:31:35;;;;;;;5.40;2.30;;;10.80;99.90;10.00;99964;;;;566022;249;24089;-82
2022/11/05 11:34:03;;;;;;;2.40;2.00;;;10.80;99.90;10.00;99974;;;;579041;244;24080;-82
2022/11/05 11:36:43;;;;;;;4.30;2.63;;;10.80;99.90;10.10;99974;;;;577572;244;24067;-80
2022/11/05 11:39:18;;;;;;;5.43;2.70;;;10.90;99.90;10.10;99973;;;;571106;246;25151;-81
2022/11/05 11:41:49;;;;;;;7.03;2.90;;;10.90;99.90;10.10;99974;;;;578639;244;24086;-78
2022/11/05 11:44:17;;;;;;;4.47;2.70;;;10.90;99.90;10.10;99968;;;;578564;244;24122;-80
2022/11/05 11:46:51;;;;;;;5.80;2.60;;;10.90;99.90;10.20;99971;;;;579162;244;24047;-79
2022/11/05 11:49:38;;;;;;;3.00;2.27;;;10.90;99.90;10.20;99973;;;;588261;242;24069;-80
2022/11/05 11:52:06;;;;;;;5.43;2.23;;;11.00;99.90;10.20;99978;;;;580578;242;24108;-81
2022/11/05 11:54:34;;;;;;;3.97;2.17;;;11.00;99.90;10.20;99977;;;;578294;244;24108;-84
2022/11/05 11:57:01;;;;;;;2.30;2.00;;;11.00;99.90;10.20;99984;;;;588777;244;24078;-80
2022/11/05 11:59:29;;;;;;;2.40;1.97;;;11.00;99.90;10.20;99984;;;;579799;244;24056;-80
2022/11/05 12:02:18;;;;;;;2.67;2.17;;;11.00;99.90;10.20;99980;;;;579531;244;24079;-82
2022/11/05 12:04:51;;;;;;;2.63;2.43;;;11.00;99.90;10.20;99993;;;;579664;244;24060;-79
2022/11/05 12:07:34;;;;;;;3.67;1.93;;;11.00;99.90;10.20;99986;;;;579344;244;24070;-80
2022/11/05 12:10:17;;;;;;;4.17;2.57;;;11.00;99.90;10.20;100003;;;;579039;244;24075;-81
2022/11/05 12:13:20;;;;;;;3.40;2.47;;;11.00;99.90;10.20;100001;;;;578745;244;24092;-80
2022/11/05 12:16:18;;;;;;;2.60;2.23;;;11.00;99.90;10.30;100009;;;;579993;242;24126;-79
2022/11/05 12:19:08;;;;;;;5.23;2.87;;;11.00;99.90;10.30;100013;;;;579380;244;24059;-81
2022/11/05 12:21:45;;;;;;;3.77;2.67;;;11.00;99.90;10.30;100020;;;;579398;244;24079;-78
2022/11/05 12:24:50;;;;;;;8.70;2.77;;;11.00;99.90;10.30;100022;;;;578861;244;25109;-80